x

Buoy B01 - Western Maine Shelf (44030) Wave Buoy

6:04 - Sun 28th Dec 2014 All times are EST. -5 hours from GMT.

  • Sig Wave height 3.3ft
  • Peak Period 5s
  • Wind
    18mph, 20mph gusts
  • Sea Temp 44°f
  • Ar Temp 45°f
  • Sea Pressure 1008.2mb
  • Buoy B01 - Western Maine Shelf
  • Buoy B01 - Western Maine Shelf

More Historic Weather Station data

Upgrade to MSW Pro to gain access to the past 30 days of data for over 8000 Wavebouys and Weather Stations around the globe.

Join Pro

Comparision Forecast

View Surf forecast
   
Dom 12/28 6:04 3.5ft 5s 18 20 mph 1008.2mb 44f 45f
5:04 3ft 5s 16 18 mph 1008.3mb 44f 46f
4:04 2.5ft 5s 16 20 mph 1008.8mb 44f 45f
3:04 3ft 4s 18 20 mph 1009.9mb 44f 45f
2:04 3ft 4s 18 20 mph 1011.2mb 44f 44f
1:04 2.5ft 3s 20 25 mph 1011.8mb 44f 44f
12:04 2ft 3s 18 22 mph 1013.8mb 44f 45f
Sáb 12/27 11:04 1ft 2s 13 16 mph 1015.1mb 44f 45f
10:04  -   -  11
mph
1016.5mb 44f 45f
9:04 3ft 16s 7 9 mph 1017.7mb 44f 44f
8:04 2ft 11s 7
mph
1018.2mb 44f 44f
7:04 3ft 16s 7 9 mph 1018mb 44f 44f
6:04 2.5ft 16s 4
mph
1018.2mb 44f 45f
5:04 1ft 3s 4
mph
1018mb 44f 45f
4:04 1ft 3s 13 16 mph 1018.1mb 44f 47f
3:04 1ft 3s 9
mph
1017.8mb 44f 47f
2:04 1ft 3s 7 9 mph 1018mb 44f 47f
1:04 1.3ft 3s 11 13 mph 1018.4mb 44f 47f
12:04 1.3ft 3s 9 11 mph 1018.8mb 44f 44f
11:04 1.3ft 4s 4 7 mph 1019.8mb 44f 46f
10:04 1.3ft 4s 7 9 mph 1020.7mb 44f 44f
9:04 1.3ft 4s 13 16 mph 1020.5mb 43f 41f
8:04 1.6ft 3s 13 16 mph 1020.2mb 43f 40f
7:04 1.6ft 3s 16 20 mph 1019.4mb 43f 40f
6:04 2ft 3s 20 22 mph 1018.4mb 43f 40f
5:04 2ft 3s 20 25 mph 1017.9mb 43f 40f
4:04 2.5ft 6s 18 20 mph 1017.8mb 43f 41f
3:04 1.6ft 3s 18 22 mph 1017.8mb 43f 40f
2:04 1.3ft 3s 20 22 mph 1017.7mb 43f 40f
1:04 2ft 3s 20 22 mph 1017.1mb 43f 40f
12:04 2ft 3s 16 18 mph 1017.6mb 43f 41f
Sex 12/26 11:04 1.6ft 3s 16 20 mph 1018.4mb 43f 41f
10:04 1.6ft 3s 18 20 mph 1018.6mb 43f 42f
9:04 1.6ft 3s 20 22 mph 1018.1mb 43f 43f
8:04 1.6ft 3s 13 16 mph 1018.6mb 43f 43f
7:04  -   -  18 22 mph 1018.2mb 43f 44f
6:04 2.5ft 11s 11 13 mph 1017.5mb 43f 44f
5:04 1ft 2s 11 13 mph 1017.2mb 43f 45f
4:04 1.3ft 3s 13
mph
1017.2mb 43f 46f
3:04 2.5ft 3s 11 16 mph 1016.9mb 44f 46f
2:04 2.5ft 3s 13 18 mph 1016.4mb 44f 46f
1:04 2.5ft 3s 20 22 mph 1016.4mb 44f 46f
12:04 2.5ft 3s 16 18 mph 1016.4mb 44f 46f
11:04 2.5ft 4s 18 20 mph 1017.3mb 43f 45f
10:04 2.5ft 4s 20 25 mph 1017.8mb 43f 44f
9:04 2ft 4s 18 20 mph 1017.5mb 43f 43f
8:04 2ft 4s 16 20 mph 1017.2mb 43f 42f
7:04 3.5ft 11s 20 22 mph 1016.1mb 43f 42f
6:04  -   -  13 18 mph 1015.4mb 43f 42f
5:04 3.5ft 11s 16 18 mph 1014.8mb 44f 43f
4:04 2ft 3s 20 22 mph 1013.6mb 44f 43f
3:04 3ft 11s 16 22 mph 1013.4mb 44f 43f
2:04 2.5ft 8s 18 20 mph 1012.8mb 44f 43f
1:04 3.5ft 11s 18 20 mph 1011.8mb 44f 43f
12:04 3.5ft 11s 16 18 mph 1011mb 44f 44f
Qui 12/25 11:04 3.5ft 8s 16 20 mph 1010.5mb 44f 44f
10:04 4ft 11s 18 22 mph 1009.9mb 44f 45f
9:04 3.5ft 8s 20 25 mph 1009mb 44f 45f
8:04 2.5ft 4s 18 22 mph 1007.7mb 44f 46f
7:04 2.5ft 4s 22 27 mph 1006.5mb 44f 47f
6:04 3.5ft 8s 20 25 mph 1004.8mb 45f 47f
5:04 4ft 8s 20 25 mph 1003.9mb 45f 48f
4:04 3.5ft 4s 25 31 mph 1002.5mb 46f 49f
3:04 4.5ft 8s 27 34 mph 1000.9mb 46f 49f
2:04 5ft 8s 22 29 mph 999.8mb 46f 50f
1:04 5ft 8s 25 34 mph 998.6mb 46f 50f
12:04 4.5ft 6s 16 20 mph 997.9mb 46f 48f
11:04 5.5ft 8s 18 22 mph 997.9mb 46f 49f
10:04 5.5ft 8s 16 18 mph 997.7mb 46f 48f
9:04 5.5ft 6s 16 20 mph 997.1mb 46f 48f
8:04 6.5ft 6s 18 22 mph 995.7mb 46f 51f
7:04 5ft 8s 4 7 mph 996.3mb 46f 46f
6:04 5ft 8s 2 4 mph 996.1mb 46f 44f
5:04 5.5ft 6s 7
mph
996.7mb 46f 43f
4:04 5ft 8s 7 9 mph 997.4mb 46f 42f
3:04 4.5ft 8s 4 7 mph 998.1mb 46f 41f
2:04 4.5ft 8s 7 9 mph 998.8mb 46f 41f
1:04 4.5ft 8s 13 16 mph 998.8mb 46f 40f
12:04 5ft 8s 13 16 mph 999.2mb 47f 40f
Qua 12/24 11:04 4.5ft 8s 9 11 mph 1000.6mb 47f 41f
10:04 5ft 8s 11 13 mph 1002.1mb 47f 41f
9:04 5.5ft 8s 13 16 mph 1003.6mb 47f 41f
8:04 5ft 8s 11 16 mph 1005.3mb 47f 41f
7:04 5ft 8s 16 18 mph 1006.5mb 47f 42f
6:04 5ft 8s 16 18 mph 1007.8mb 47f 43f
5:04 5ft 6s 18 20 mph 1008.3mb 47f 43f
4:04 5ft 8s 18 20 mph 1009.5mb 47f 43f
3:04 6ft 8s 18 20 mph 1010.5mb 47f 42f
2:04 7.5ft 8s 16 20 mph 1011.8mb 47f 42f
1:04 6ft 8s 18 20 mph 1012.6mb 47f 42f